PORT of CHALKI

Land: Greece Land: Greece [GR]
Bredde og lengdegrad: 36.221375° / 27.615645° Vis i kart
Lokal tid:  [UTC +3]
UN/LOCODE: GRHAL

Siste ankomster og avganger


Fartøyets navn
Ankomst (UTC)
Ankomst (LT)
Avgang (UTC)
Avgang (LT)
Vessel Type: Passasjer båt  FEDON 2014-08-28 14:53:00 2014-08-28 17:53:00 2014-08-29 03:36:00 2014-08-29 06:36:00
Vessel Type: Hurtigbåt  DODEKANISOS EXPRESS 2014-08-28 13:25:00 2014-08-28 16:25:00 2014-08-28 13:39:00 2014-08-28 16:39:00
Vessel Type: Passasjer båt  FEDON 2014-08-28 07:04:00 2014-08-28 10:04:00 2014-08-28 13:05:00 2014-08-28 16:05:00
Vessel Type: Passasjer båt  PREVELIS 2014-08-28 08:09:00 2014-08-28 11:09:00 2014-08-28 08:25:00 2014-08-28 11:25:00
Vessel Type: Passasjer båt  ULUCINAR 2014-08-27 16:00:00 2014-08-27 19:00:00 2014-08-28 07:43:00 2014-08-28 10:43:00
Vessel Type: Yachts & andre  NECTON 2014-08-27 13:51:00 2014-08-27 16:51:00 2014-08-28 05:42:00 2014-08-28 08:42:00
Vessel Type: Passasjer båt  FEDON 2014-08-27 16:44:00 2014-08-27 19:44:00 2014-08-28 03:34:00 2014-08-28 06:34:00
Vessel Type: Passasjer båt  PREVELIS 2014-08-27 21:47:00 2014-08-28 00:47:00 2014-08-27 22:01:00 2014-08-28 01:01:00
Vessel Type: Passasjer båt  FEDON 2014-08-27 07:07:00 2014-08-27 10:07:00 2014-08-27 13:04:00 2014-08-27 16:04:00
Vessel Type: Yachts & andre  GITANA IV 2014-08-26 15:01:00 2014-08-26 18:01:00 2014-08-27 09:27:00 2014-08-27 12:27:00

Forventet ankomst


Fartøyets navn
Scheduled Arrival (UTC)
Fastsatt ankomsttid (lokal)
Beregnet ankomst (UTC)
Beregnet ankomst lokal tid
Ingen registreringer funnet

Wind Forecast


    
Tid (UTC)
Fart
Direction
Temperature
2014-08-29 06:00:00 10 knots 326° 26°C
2014-08-29 09:00:00 11 knots 311° 26°C
2014-08-29 12:00:00 12 knots 303° 27°C
2014-08-29 15:00:00 11 knots 296° 27°C
2014-08-29 18:00:00 8 knots 309° 27°C
2014-08-29 21:00:00 4 knots 336° 27°C
2014-08-30 00:00:00 4 knots 351° 27°C
2014-08-30 03:00:00 6 knots 358° 26°C
2014-08-30 06:00:00 6 knots 343° 26°C
2014-08-30 09:00:00 8 knots 304° 27°C
2014-08-30 12:00:00 11 knots 299° 26°C
2014-08-30 15:00:00 11 knots 302° 26°C
2014-08-30 18:00:00 8 knots 300° 26°C
2014-08-30 21:00:00 8 knots 281° 26°C
2014-08-31 00:00:00 9 knots 286° 26°C
2014-08-31 03:00:00 9 knots 314° 26°C
2014-08-31 06:00:00 12 knots 310° 26°C